createdAt,value
2023-01-22T00:02:39.218Z,14.25
2023-01-22T00:05:06.597Z,15.23
2023-01-22T00:07:33.931Z,16.35
2023-01-22T00:10:00.625Z,15.00
2023-01-22T00:12:28.047Z,15.55
2023-01-22T00:14:54.841Z,15.68
2023-01-22T00:17:21.505Z,15.32
2023-01-22T00:19:48.221Z,15.55
2023-01-22T00:22:14.890Z,16.67
2023-01-22T00:24:41.778Z,16.80
2023-01-22T00:27:08.477Z,14.52
2023-01-22T00:29:35.393Z,15.68
2023-01-22T00:32:02.313Z,16.08
2023-01-22T00:34:29.589Z,15.13
2023-01-22T00:36:57.979Z,15.70
2023-01-22T00:39:24.723Z,16.27
2023-01-22T00:41:51.940Z,15.15
2023-01-22T00:44:18.693Z,16.00
2023-01-22T00:46:45.549Z,17.85
2023-01-22T00:49:12.770Z,16.35
2023-01-22T00:51:39.771Z,15.50
2023-01-22T00:54:06.609Z,15.48
2023-01-22T00:56:33.486Z,16.75
2023-01-22T00:59:00.274Z,17.55
2023-01-22T01:01:27.105Z,17.23
2023-01-22T01:03:53.821Z,17.10
2023-01-22T01:06:21.923Z,17.20
2023-01-22T01:08:49.639Z,17.02
2023-01-22T01:11:22.365Z,16.55
2023-01-22T01:13:50.412Z,17.20
2023-01-22T01:16:20.197Z,17.25
2023-01-22T01:18:48.080Z,17.60
2023-01-22T01:21:15.569Z,16.60
2023-01-22T01:23:42.826Z,17.90
2023-01-22T01:26:12.920Z,17.50
2023-01-22T01:28:41.125Z,16.98
2023-01-22T01:31:11.006Z,17.58
2023-01-22T01:33:37.885Z,15.13
2023-01-22T01:36:08.085Z,16.85
2023-01-22T01:38:34.987Z,15.82
2023-01-22T01:41:01.931Z,17.55
2023-01-22T01:43:28.646Z,18.30
2023-01-22T01:48:33.687Z,17.33
2023-01-22T01:51:11.971Z,17.00
2023-01-22T01:53:40.775Z,18.55
2023-01-22T01:56:12.783Z,16.27
2023-01-22T01:58:42.396Z,17.50
2023-01-22T02:01:13.780Z,17.15
2023-01-22T02:03:41.131Z,16.98
2023-01-22T02:06:12.121Z,17.73
2023-01-22T02:08:40.368Z,17.73
2023-01-22T02:11:08.311Z,18.52
2023-01-22T02:13:37.447Z,19.25
2023-01-22T02:16:05.823Z,16.70
2023-01-22T02:18:32.476Z,19.60
2023-01-22T02:23:30.269Z,16.73
2023-01-22T02:26:00.246Z,18.25
2023-01-22T02:28:27.010Z,17.23
2023-01-22T02:30:55.751Z,17.05
2023-01-22T02:33:22.590Z,17.38
2023-01-22T02:35:49.293Z,18.15
2023-01-22T02:40:49.211Z,18.50
2023-01-22T02:43:19.027Z,16.83
2023-01-22T02:45:45.922Z,17.50
2023-01-22T02:48:12.926Z,17.80
2023-01-22T02:50:39.705Z,15.98
2023-01-22T02:53:06.486Z,16.85
2023-01-22T02:55:34.150Z,15.32
2023-01-22T03:00:27.426Z,14.05
2023-01-22T03:02:55.191Z,14.90
2023-01-22T03:07:48.522Z,15.85
2023-01-22T03:10:18.738Z,16.75
2023-01-22T03:13:06.180Z,15.57
2023-01-22T03:15:52.405Z,16.13
2023-01-22T03:18:38.327Z,14.43
2023-01-22T03:21:17.057Z,14.48
2023-01-22T03:23:52.570Z,15.43
2023-01-22T03:26:20.746Z,14.25
2023-01-22T03:28:48.627Z,16.10
2023-01-22T03:31:16.624Z,16.40
2023-01-22T03:33:44.309Z,16.52
2023-01-22T03:36:13.736Z,15.25
2023-01-22T03:38:45.831Z,17.65
2023-01-22T03:41:18.143Z,16.58
2023-01-22T03:43:47.715Z,16.20
2023-01-22T03:46:19.895Z,16.10
2023-01-22T03:48:51.432Z,18.33
2023-01-22T03:51:18.748Z,17.65
2023-01-22T03:53:46.169Z,16.65
2023-01-22T03:56:15.849Z,17.23
2023-01-22T03:58:43.287Z,17.50
2023-01-22T04:01:13.387Z,18.58
2023-01-22T04:03:40.663Z,19.23
2023-01-22T04:06:09.381Z,19.58
2023-01-22T04:08:38.582Z,17.80
2023-01-22T04:11:05.752Z,17.65
2023-01-22T04:13:34.083Z,19.70
2023-01-22T04:16:01.950Z,18.85
2023-01-22T04:18:57.931Z,19.92
2023-01-22T04:21:39.709Z,19.75
2023-01-22T04:24:09.175Z,20.25
2023-01-22T04:26:35.991Z,18.90
2023-01-22T04:29:03.816Z,19.08
2023-01-22T04:31:30.809Z,19.30
2023-01-22T04:34:17.815Z,18.73
2023-01-22T04:37:06.345Z,19.40
2023-01-22T04:39:34.987Z,18.05
2023-01-22T04:42:01.748Z,19.70
2023-01-22T04:44:28.395Z,19.45
2023-01-22T04:49:22.059Z,17.55
2023-01-22T04:51:54.088Z,19.15
2023-01-22T04:54:20.797Z,20.63
2023-01-22T04:56:47.926Z,19.92
2023-01-22T05:01:42.185Z,18.40
2023-01-22T05:04:10.554Z,18.95
2023-01-22T05:06:37.610Z,18.25
2023-01-22T05:09:05.144Z,19.55
2023-01-22T05:11:44.770Z,18.70
2023-01-22T05:14:12.267Z,18.65
2023-01-22T05:16:38.890Z,17.92
2023-01-22T05:21:32.942Z,19.42
2023-01-22T05:26:28.549Z,18.20
2023-01-22T05:29:01.964Z,19.25
2023-01-22T05:31:47.307Z,18.27
2023-01-22T05:34:26.823Z,19.60
2023-01-22T05:36:53.698Z,21.13
2023-01-22T05:39:24.040Z,19.88
2023-01-22T05:41:52.597Z,21.20
2023-01-22T05:44:19.934Z,21.95
2023-01-22T05:46:51.129Z,21.40
2023-01-22T05:49:45.345Z,20.35
2023-01-22T05:52:14.673Z,20.83
2023-01-22T05:54:41.415Z,18.33
2023-01-22T05:57:08.567Z,18.60
2023-01-22T05:59:37.938Z,21.30
2023-01-22T06:02:06.676Z,21.08
2023-01-22T06:04:37.997Z,21.75
2023-01-22T06:07:14.834Z,20.80
2023-01-22T06:12:08.179Z,19.75
2023-01-22T06:14:34.937Z,21.02
2023-01-22T06:17:02.849Z,21.98
2023-01-22T06:19:38.388Z,22.15
2023-01-22T06:22:06.184Z,22.00
2023-01-22T06:24:45.972Z,21.48
2023-01-22T06:27:14.385Z,21.85
2023-01-22T06:29:50.677Z,21.53
2023-01-22T06:32:17.559Z,21.42
2023-01-22T06:34:44.651Z,21.83
2023-01-22T06:39:39.296Z,23.40
2023-01-22T06:42:22.996Z,23.10
2023-01-22T06:44:51.543Z,23.20
2023-01-22T06:47:19.902Z,22.02
2023-01-22T06:49:46.713Z,20.55
2023-01-22T06:52:13.433Z,24.40
2023-01-22T06:54:40.206Z,22.45
2023-01-22T06:57:06.922Z,23.77
2023-01-22T06:59:37.290Z,22.55
2023-01-22T07:02:04.248Z,22.88
2023-01-22T07:04:30.880Z,20.58
2023-01-22T07:09:24.468Z,19.73
2023-01-22T07:11:51.352Z,21.13
2023-01-22T07:14:28.914Z,22.77
2023-01-22T07:17:02.538Z,21.05
2023-01-22T11:38:54.575Z,19.08
2023-01-22T11:41:49.770Z,17.77
2023-01-22T11:44:40.396Z,18.40
2023-01-22T11:47:54.951Z,20.38
2023-01-22T11:50:35.468Z,20.85
2023-01-22T11:53:33.293Z,20.98
2023-01-22T11:56:21.739Z,18.98
2023-01-22T11:59:04.187Z,19.33
2023-01-22T12:02:03.329Z,17.55
2023-01-22T12:04:44.218Z,16.70
2023-01-22T12:07:32.462Z,18.25
2023-01-22T12:09:59.074Z,16.60
2023-01-22T12:15:29.322Z,16.80
2023-01-22T12:18:25.169Z,18.20
2023-01-22T12:21:08.142Z,19.25
2023-01-22T12:23:34.819Z,18.23
2023-01-22T12:29:00.148Z,14.63
2023-01-22T12:31:32.082Z,14.00
2023-01-22T12:34:02.186Z,15.52
2023-01-22T12:36:29.990Z,13.55
2023-01-22T12:39:02.607Z,14.65
2023-01-22T12:41:29.893Z,14.30
2023-01-22T12:44:00.041Z,14.40
2023-01-22T12:46:38.505Z,15.27
2023-01-22T12:49:08.427Z,14.85
2023-01-22T12:51:41.181Z,15.32
2023-01-22T12:54:25.925Z,14.90
2023-01-22T12:57:08.875Z,15.35
2023-01-22T12:59:35.572Z,13.93
2023-01-22T13:04:33.897Z,15.23
2023-01-22T13:07:20.228Z,16.10
2023-01-22T13:09:47.330Z,14.38
2023-01-22T13:12:28.799Z,14.70
2023-01-22T13:14:56.521Z,15.02
2023-01-22T13:17:27.311Z,15.65
2023-01-22T13:19:54.455Z,15.23
2023-01-22T13:22:27.222Z,14.30
2023-01-22T13:24:56.800Z,16.45
2023-01-22T13:27:30.356Z,17.23
2023-01-22T13:30:08.441Z,15.65
2023-01-22T13:32:35.155Z,16.88
2023-01-22T13:37:30.760Z,15.68
2023-01-22T13:39:57.434Z,16.02
2023-01-22T13:44:52.148Z,14.77
2023-01-22T13:47:34.044Z,14.18
2023-01-22T13:50:01.917Z,15.35
2023-01-22T13:52:28.949Z,14.20
2023-01-22T13:55:02.353Z,14.38
2023-01-22T13:57:29.095Z,13.90
2023-01-22T14:02:34.550Z,13.10
2023-01-22T14:05:02.043Z,13.10
2023-01-22T14:07:38.277Z,11.60
2023-01-22T14:10:19.568Z,14.02
2023-01-22T14:12:46.555Z,12.32
2023-01-22T14:15:19.302Z,13.50
2023-01-22T14:17:46.026Z,14.85
2023-01-22T14:22:39.921Z,14.13
2023-01-22T14:25:06.963Z,13.32
2023-01-22T14:27:48.718Z,14.52
2023-01-22T14:30:18.747Z,14.35
2023-01-22T14:32:46.041Z,15.10
2023-01-22T14:35:18.660Z,13.38
2023-01-22T14:37:46.201Z,15.23
2023-01-22T14:40:14.368Z,14.90
2023-01-22T14:42:41.178Z,15.02
2023-01-22T14:45:09.158Z,14.88
2023-01-22T14:47:35.830Z,17.38
2023-01-22T14:52:29.349Z,14.60
2023-01-22T14:54:56.103Z,14.98
2023-01-22T14:57:24.219Z,14.50
2023-01-22T14:59:51.443Z,15.18
2023-01-22T15:02:18.722Z,14.82
2023-01-22T15:04:45.520Z,14.20
2023-01-22T15:07:12.319Z,14.02
2023-01-22T15:09:39.678Z,13.90
2023-01-22T15:12:07.448Z,15.77
2023-01-22T15:14:34.097Z,14.98
2023-01-22T15:19:27.430Z,15.35
2023-01-22T15:24:20.865Z,14.07
2023-01-22T15:26:47.661Z,13.80
2023-01-22T15:29:15.027Z,14.50
2023-01-22T15:31:41.913Z,14.95
2023-01-22T15:34:08.832Z,13.32
2023-01-22T15:36:39.369Z,13.32
2023-01-22T15:39:06.918Z,12.70
2023-01-22T15:41:36.053Z,13.95
2023-01-22T15:44:05.436Z,14.40
2023-01-22T15:46:35.110Z,14.55
2023-01-22T15:49:02.236Z,14.40
2023-01-22T15:51:29.409Z,14.15
2023-01-22T15:53:58.767Z,14.70
2023-01-22T15:56:27.582Z,13.88
2023-01-22T15:58:54.665Z,14.05
2023-01-22T16:01:22.464Z,13.23
2023-01-22T16:03:49.633Z,13.20
2023-01-22T16:06:22.511Z,12.32
2023-01-22T16:08:50.158Z,15.02
2023-01-22T16:11:17.439Z,14.57
2023-01-22T16:13:44.389Z,13.15
2023-01-22T16:16:16.157Z,13.38
2023-01-22T16:18:43.432Z,15.10
2023-01-22T16:21:11.097Z,14.02
2023-01-22T16:23:39.782Z,14.38
2023-01-22T16:26:09.443Z,13.32
2023-01-22T16:28:40.136Z,13.57
2023-01-22T16:31:09.431Z,14.27
2023-01-22T16:33:38.882Z,13.18
2023-01-22T16:36:10.010Z,14.32
2023-01-22T16:38:36.906Z,15.50
2023-01-22T16:41:24.390Z,14.40
2023-01-22T16:43:53.235Z,14.43
2023-01-22T16:46:23.206Z,16.73
2023-01-22T16:48:59.028Z,16.13
2023-01-22T16:51:28.126Z,15.20
2023-01-22T16:53:55.538Z,16.38
2023-01-22T16:56:22.597Z,15.60
2023-01-22T16:58:49.271Z,16.20
2023-01-22T17:03:43.469Z,14.77
2023-01-22T17:06:21.978Z,15.65
2023-01-22T17:08:49.161Z,15.30
2023-01-22T17:11:17.295Z,14.60
2023-01-22T17:13:44.436Z,15.02
2023-01-22T17:16:12.007Z,14.10
2023-01-22T17:18:39.240Z,16.42
2023-01-22T17:21:07.714Z,15.18
2023-01-22T17:23:34.803Z,13.98
2023-01-22T17:26:05.969Z,15.70
2023-01-22T17:28:35.422Z,14.75
2023-01-22T17:31:05.827Z,16.15
2023-01-22T17:33:32.689Z,16.48
2023-01-22T17:36:00.575Z,15.15
2023-01-22T17:38:29.124Z,14.95
2023-01-22T17:40:56.865Z,14.10
2023-01-22T17:43:24.302Z,14.00
2023-01-22T17:45:51.169Z,13.80
2023-01-22T17:48:17.955Z,15.05
2023-01-22T17:53:11.246Z,14.30
2023-01-22T17:58:05.115Z,13.45
2023-01-22T18:00:31.844Z,14.40
2023-01-22T18:02:58.551Z,13.43
2023-01-22T18:05:26.633Z,15.00
2023-01-22T18:07:53.310Z,13.77
2023-01-22T18:17:42.459Z,13.73
2023-01-22T18:20:09.785Z,13.90
2023-01-22T18:22:36.463Z,14.52
2023-01-22T18:27:30.164Z,14.38
2023-01-22T18:29:56.857Z,14.93
2023-01-22T18:34:51.056Z,13.90
2023-01-22T18:39:44.366Z,15.13
2023-01-22T18:44:38.893Z,14.95
2023-01-22T18:47:10.916Z,13.05
2023-01-22T18:49:37.713Z,14.15
2023-01-22T18:52:04.918Z,14.93
2023-01-22T18:54:32.496Z,15.70
2023-01-22T18:56:59.211Z,13.65
2023-01-22T18:59:25.987Z,14.77
2023-01-22T19:01:52.960Z,14.48
2023-01-22T19:04:21.759Z,13.93
2023-01-22T19:06:53.534Z,13.27
2023-01-22T19:09:20.539Z,14.80
2023-01-22T19:11:48.450Z,15.20
2023-01-22T19:14:17.770Z,15.02
2023-01-22T19:16:45.101Z,14.75
2023-01-22T19:19:13.489Z,13.93
2023-01-22T19:21:43.436Z,15.65
2023-01-22T19:24:11.391Z,14.48
2023-01-22T19:26:38.529Z,13.50
2023-01-22T19:29:12.206Z,14.27
2023-01-22T19:31:46.253Z,14.45
2023-01-22T19:34:18.368Z,13.13
2023-01-22T19:36:45.037Z,13.82
2023-01-22T19:41:42.524Z,13.38
2023-01-22T19:44:10.795Z,14.82
2023-01-22T19:46:38.903Z,13.25
2023-01-22T19:49:07.037Z,14.85
2023-01-22T19:51:34.036Z,17.63
2023-01-22T19:54:01.942Z,14.60
2023-01-22T19:56:35.131Z,15.02
2023-01-22T19:59:07.441Z,14.57
2023-01-22T20:01:36.627Z,15.45
2023-01-22T20:04:08.656Z,14.00
2023-01-22T20:06:35.871Z,12.82
2023-01-22T20:09:03.476Z,14.93
2023-01-22T20:11:30.486Z,15.63
2023-01-22T20:13:58.051Z,12.30
2023-01-22T20:16:26.640Z,12.52
2023-01-22T20:18:54.474Z,15.63
2023-01-22T20:21:22.693Z,14.20
2023-01-22T20:23:50.670Z,12.90
2023-01-22T20:26:19.053Z,12.40
2023-01-22T20:28:46.877Z,14.57
2023-01-22T20:31:17.337Z,14.63
2023-01-22T20:33:44.369Z,13.25
2023-01-22T20:36:16.419Z,13.35
2023-01-22T20:38:45.679Z,12.68
2023-01-22T20:41:13.083Z,15.10
2023-01-22T20:43:41.890Z,14.68
2023-01-22T20:46:15.060Z,15.68
2023-01-22T20:48:42.787Z,12.98
2023-01-22T20:51:15.832Z,12.65
2023-01-22T20:53:43.645Z,13.50
2023-01-22T20:56:14.502Z,15.75
2023-01-22T20:58:41.406Z,14.40
2023-01-22T21:01:09.723Z,12.10
2023-01-22T21:03:36.967Z,15.60
2023-01-22T21:06:13.593Z,14.25
2023-01-22T21:08:41.892Z,14.43
2023-01-22T21:11:11.577Z,14.63
2023-01-22T21:13:38.541Z,14.20
2023-01-22T21:16:17.983Z,15.05
2023-01-22T21:18:46.161Z,14.05
2023-01-22T21:21:18.994Z,13.40
2023-01-22T21:23:50.962Z,13.82
2023-01-22T21:26:22.635Z,13.05
2023-01-22T21:28:50.977Z,13.40
2023-01-22T21:31:19.413Z,13.05
2023-01-22T21:33:46.614Z,13.35
2023-01-22T21:36:14.471Z,11.63
2023-01-22T21:38:41.184Z,12.20
2023-01-22T21:43:59.845Z,12.32
2023-01-22T21:46:29.058Z,11.43
2023-01-22T21:49:02.155Z,15.38
2023-01-22T21:51:29.756Z,12.68
2023-01-22T21:53:57.867Z,13.65
2023-01-22T21:56:25.349Z,12.63
2023-01-22T21:58:52.038Z,15.02
2023-01-22T22:03:47.722Z,13.32
2023-01-22T22:06:14.610Z,13.93
2023-01-22T22:08:43.393Z,15.05
2023-01-22T22:11:12.374Z,14.30
2023-01-22T22:13:39.287Z,15.18
2023-01-22T22:16:07.819Z,14.55
2023-01-22T22:18:35.486Z,12.88
2023-01-22T22:21:05.234Z,13.30
2023-01-22T22:23:32.770Z,15.10
2023-01-22T22:26:00.590Z,15.23
2023-01-22T22:28:27.935Z,14.70
2023-01-22T22:31:02.390Z,15.80
2023-01-22T22:33:29.070Z,15.48
2023-01-22T22:38:22.284Z,13.20
2023-01-22T22:43:25.945Z,14.23
2023-01-22T22:48:19.681Z,11.07
2023-01-22T22:50:46.381Z,12.55
2023-01-22T22:53:13.082Z,12.95
2023-01-22T22:55:41.991Z,13.00
2023-01-22T22:58:09.531Z,11.75
2023-01-22T23:00:38.039Z,12.38
2023-01-22T23:03:04.910Z,12.00
2023-01-22T23:05:36.918Z,12.00
2023-01-22T23:08:03.874Z,11.07
2023-01-22T23:10:31.921Z,12.95
2023-01-22T23:13:00.515Z,11.82
2023-01-22T23:15:29.500Z,20.77
2023-01-22T23:17:57.839Z,14.90
2023-01-22T23:20:25.346Z,14.48
2023-01-22T23:22:57.695Z,13.27
2023-01-22T23:25:24.854Z,15.15
2023-01-22T23:27:51.885Z,13.52
2023-01-22T23:30:18.916Z,13.93
2023-01-22T23:32:45.833Z,14.00
2023-01-22T23:35:12.559Z,15.60
2023-01-22T23:37:39.252Z,14.93
2023-01-22T23:42:32.769Z,14.18
2023-01-22T23:47:27.144Z,14.73
2023-01-22T23:49:53.913Z,13.90
2023-01-22T23:54:48.097Z,15.88
2023-01-22T23:57:14.857Z,15.82
2023-01-22T23:59:41.537Z,16.05
